LRSV/SCV METAR and TAF weather

Enter ICAO airport designator
Station Type Date Time Source
LRSV METAR 2019/08/24 17:30 UTC NOAA

LRSV 241730Z 36003KT CAVOK 22/12 Q1024


Station Type Date Time Source
LRSV Decoded METAR 2019/08/24 17:30 UTC NOAA

Station name not available
Aug 24, 2019 - 01:30 PM EDT / 2019.08.24 1730 UTC
Wind: from the N (360 degrees) at 3 MPH (3 KT):0
Visibility: greater than 7 mile(s):0
Temperature: 71 F (22 C)
Dew Point: 53 F (12 C)
Relative Humidity: 53%
Pressure (altimeter): 30.24 in. Hg (1024 hPa)
ob: LRSV 241730Z 36003KT CAVOK 22/12 Q1024
cycle: 17

Station Type Date Time Source
LRSV TAF 2014/07/19 18:48 UTC NOAA

TAF LRSV 191800Z 1918/2024 CNL

Example: see airport list